sensor_id;sensor_type;location;lat;lon;timestamp;P1;durP1;ratioP1;P2;durP2;ratioP2
65658;SDS011;60181;53.258;6.932;2023-05-07T00:01:08;27.70;;;14.80;;
65658;SDS011;60181;53.258;6.932;2023-05-07T00:05:11;27.70;;;14.80;;
65658;SDS011;60181;53.258;6.932;2023-05-07T00:09:15;29.00;;;14.60;;
65658;SDS011;60181;53.258;6.932;2023-05-07T00:13:19;29.00;;;14.60;;
65658;SDS011;60181;53.258;6.932;2023-05-07T00:17:23;28.70;;;15.00;;
65658;SDS011;60181;53.258;6.932;2023-05-07T00:21:27;28.70;;;15.00;;
65658;SDS011;60181;53.258;6.932;2023-05-07T00:25:31;28.70;;;15.00;;
65658;SDS011;60181;53.258;6.932;2023-05-07T00:29:35;30.50;;;14.50;;
65658;SDS011;60181;53.258;6.932;2023-05-07T00:33:39;30.50;;;14.50;;
65658;SDS011;60181;53.258;6.932;2023-05-07T00:37:43;27.10;;;14.10;;
65658;SDS011;60181;53.258;6.932;2023-05-07T00:41:47;27.10;;;14.10;;
65658;SDS011;60181;53.258;6.932;2023-05-07T00:45:51;27.10;;;14.10;;
65658;SDS011;60181;53.258;6.932;2023-05-07T00:49:55;28.90;;;15.60;;
65658;SDS011;60181;53.258;6.932;2023-05-07T00:53:59;28.90;;;15.60;;
65658;SDS011;60181;53.258;6.932;2023-05-07T00:58:03;34.60;;;16.30;;
65658;SDS011;60181;53.258;6.932;2023-05-07T01:02:07;34.60;;;16.30;;
65658;SDS011;60181;53.258;6.932;2023-05-07T01:06:11;34.60;;;16.30;;
65658;SDS011;60181;53.258;6.932;2023-05-07T01:10:15;33.60;;;15.50;;
65658;SDS011;60181;53.258;6.932;2023-05-07T01:14:19;33.60;;;15.50;;
65658;SDS011;60181;53.258;6.932;2023-05-07T01:18:23;29.00;;;14.40;;
65658;SDS011;60181;53.258;6.932;2023-05-07T01:22:30;29.00;;;14.40;;
65658;SDS011;60181;53.258;6.932;2023-05-07T01:26:31;29.00;;;14.40;;
65658;SDS011;60181;53.258;6.932;2023-05-07T01:30:35;40.80;;;18.40;;
65658;SDS011;60181;53.258;6.932;2023-05-07T01:34:39;40.80;;;18.40;;
65658;SDS011;60181;53.258;6.932;2023-05-07T01:38:43;46.10;;;21.40;;
65658;SDS011;60181;53.258;6.932;2023-05-07T01:42:47;46.10;;;21.40;;
65658;SDS011;60181;53.258;6.932;2023-05-07T01:46:51;46.10;;;21.40;;
65658;SDS011;60181;53.258;6.932;2023-05-07T01:50:55;49.50;;;23.40;;
65658;SDS011;60181;53.258;6.932;2023-05-07T01:54:59;49.50;;;23.40;;
65658;SDS011;60181;53.258;6.932;2023-05-07T01:59:03;52.90;;;23.80;;
65658;SDS011;60181;53.258;6.932;2023-05-07T02:03:07;52.90;;;23.80;;
65658;SDS011;60181;53.258;6.932;2023-05-07T02:07:11;58.10;;;26.80;;
65658;SDS011;60181;53.258;6.932;2023-05-07T02:11:15;58.10;;;26.80;;
65658;SDS011;60181;53.258;6.932;2023-05-07T02:15:19;58.10;;;26.80;;
65658;SDS011;60181;53.258;6.932;2023-05-07T02:19:23;58.50;;;27.30;;
65658;SDS011;60181;53.258;6.932;2023-05-07T02:23:27;58.50;;;27.30;;
65658;SDS011;60181;53.258;6.932;2023-05-07T02:27:31;57.70;;;27.00;;
65658;SDS011;60181;53.258;6.932;2023-05-07T02:31:35;57.70;;;27.00;;
65658;SDS011;60181;53.258;6.932;2023-05-07T02:35:39;57.70;;;27.00;;
65658;SDS011;60181;53.258;6.932;2023-05-07T02:39:43;60.30;;;26.70;;
65658;SDS011;60181;53.258;6.932;2023-05-07T02:43:47;60.30;;;26.70;;
65658;SDS011;60181;53.258;6.932;2023-05-07T02:47:51;51.90;;;24.70;;
65658;SDS011;60181;53.258;6.932;2023-05-07T02:51:55;51.90;;;24.70;;
65658;SDS011;60181;53.258;6.932;2023-05-07T02:55:59;51.90;;;24.70;;
65658;SDS011;60181;53.258;6.932;2023-05-07T03:00:13;50.70;;;23.90;;
65658;SDS011;60181;53.258;6.932;2023-05-07T03:04:07;50.70;;;23.90;;
65658;SDS011;60181;53.258;6.932;2023-05-07T03:08:11;57.40;;;26.60;;
65658;SDS011;60181;53.258;6.932;2023-05-07T03:12:15;57.40;;;26.60;;
65658;SDS011;60181;53.258;6.932;2023-05-07T03:16:19;57.40;;;26.60;;
65658;SDS011;60181;53.258;6.932;2023-05-07T03:20:23;57.70;;;27.10;;
65658;SDS011;60181;53.258;6.932;2023-05-07T03:24:27;57.70;;;27.10;;
65658;SDS011;60181;53.258;6.932;2023-05-07T03:28:31;61.40;;;28.50;;
65658;SDS011;60181;53.258;6.932;2023-05-07T03:32:35;61.40;;;28.50;;
65658;SDS011;60181;53.258;6.932;2023-05-07T03:36:39;61.40;;;28.50;;
65658;SDS011;60181;53.258;6.932;2023-05-07T03:40:43;61.30;;;28.70;;
65658;SDS011;60181;53.258;6.932;2023-05-07T03:44:47;61.30;;;28.70;;
65658;SDS011;60181;53.258;6.932;2023-05-07T03:48:51;64.20;;;29.70;;
65658;SDS011;60181;53.258;6.932;2023-05-07T03:52:55;64.20;;;29.70;;
65658;SDS011;60181;53.258;6.932;2023-05-07T03:56:59;64.20;;;29.70;;
65658;SDS011;60181;53.258;6.932;2023-05-07T04:01:03;70.20;;;31.20;;
65658;SDS011;60181;53.258;6.932;2023-05-07T04:05:07;70.20;;;31.20;;
65658;SDS011;60181;53.258;6.932;2023-05-07T04:09:11;59.50;;;28.30;;
65658;SDS011;60181;53.258;6.932;2023-05-07T04:13:15;59.50;;;28.30;;
65658;SDS011;60181;53.258;6.932;2023-05-07T04:17:19;62.50;;;29.00;;
65658;SDS011;60181;53.258;6.932;2023-05-07T04:21:23;62.50;;;29.00;;
65658;SDS011;60181;53.258;6.932;2023-05-07T04:25:27;62.50;;;29.00;;
65658;SDS011;60181;53.258;6.932;2023-05-07T04:29:31;61.30;;;29.00;;
65658;SDS011;60181;53.258;6.932;2023-05-07T04:33:35;61.30;;;29.00;;
65658;SDS011;60181;53.258;6.932;2023-05-07T04:37:39;58.80;;;28.50;;
65658;SDS011;60181;53.258;6.932;2023-05-07T04:41:43;58.80;;;28.50;;
65658;SDS011;60181;53.258;6.932;2023-05-07T04:45:47;58.80;;;28.50;;
65658;SDS011;60181;53.258;6.932;2023-05-07T04:49:51;58.20;;;28.30;;
65658;SDS011;60181;53.258;6.932;2023-05-07T04:53:55;58.20;;;28.30;;
65658;SDS011;60181;53.258;6.932;2023-05-07T04:57:59;58.00;;;27.50;;
65658;SDS011;60181;53.258;6.932;2023-05-07T05:02:03;58.00;;;27.50;;
65658;SDS011;60181;53.258;6.932;2023-05-07T05:06:07;58.00;;;27.50;;
65658;SDS011;60181;53.258;6.932;2023-05-07T05:10:11;55.50;;;26.80;;
65658;SDS011;60181;53.258;6.932;2023-05-07T05:14:15;55.50;;;26.80;;
65658;SDS011;60181;53.258;6.932;2023-05-07T05:18:19;52.90;;;26.60;;
65658;SDS011;60181;53.258;6.932;2023-05-07T05:22:23;52.90;;;26.60;;
65658;SDS011;60181;53.258;6.932;2023-05-07T05:26:27;52.90;;;26.60;;
65658;SDS011;60181;53.258;6.932;2023-05-07T05:30:31;56.50;;;25.10;;
65658;SDS011;60181;53.258;6.932;2023-05-07T05:34:35;56.50;;;25.10;;
65658;SDS011;60181;53.258;6.932;2023-05-07T05:38:39;50.60;;;24.90;;
65658;SDS011;60181;53.258;6.932;2023-05-07T05:42:43;50.60;;;24.90;;
65658;SDS011;60181;53.258;6.932;2023-05-07T05:46:47;50.60;;;24.90;;
65658;SDS011;60181;53.258;6.932;2023-05-07T05:50:51;46.20;;;23.00;;
65658;SDS011;60181;53.258;6.932;2023-05-07T05:54:55;46.20;;;23.00;;
65658;SDS011;60181;53.258;6.932;2023-05-07T05:58:59;47.70;;;23.10;;
65658;SDS011;60181;53.258;6.932;2023-05-07T06:03:03;47.70;;;23.10;;
65658;SDS011;60181;53.258;6.932;2023-05-07T06:07:07;47.70;;;21.80;;
65658;SDS011;60181;53.258;6.932;2023-05-07T06:11:11;47.70;;;21.80;;
65658;SDS011;60181;53.258;6.932;2023-05-07T06:15:15;47.70;;;21.80;;
65658;SDS011;60181;53.258;6.932;2023-05-07T06:19:19;42.20;;;21.50;;
65658;SDS011;60181;53.258;6.932;2023-05-07T06:23:23;42.20;;;21.50;;
65658;SDS011;60181;53.258;6.932;2023-05-07T06:27:27;43.10;;;21.70;;
65658;SDS011;60181;53.258;6.932;2023-05-07T06:31:31;43.10;;;21.70;;
65658;SDS011;60181;53.258;6.932;2023-05-07T06:35:35;43.10;;;21.70;;
65658;SDS011;60181;53.258;6.932;2023-05-07T06:39:39;49.30;;;23.70;;
65658;SDS011;60181;53.258;6.932;2023-05-07T06:43:43;49.30;;;23.70;;
65658;SDS011;60181;53.258;6.932;2023-05-07T06:47:47;50.70;;;24.50;;
65658;SDS011;60181;53.258;6.932;2023-05-07T06:51:51;50.70;;;24.50;;
65658;SDS011;60181;53.258;6.932;2023-05-07T06:55:55;50.70;;;24.50;;
65658;SDS011;60181;53.258;6.932;2023-05-07T06:59:59;50.00;;;24.70;;
65658;SDS011;60181;53.258;6.932;2023-05-07T07:04:03;50.00;;;24.70;;
65658;SDS011;60181;53.258;6.932;2023-05-07T07:08:07;52.10;;;26.10;;
65658;SDS011;60181;53.258;6.932;2023-05-07T07:12:11;52.10;;;26.10;;
65658;SDS011;60181;53.258;6.932;2023-05-07T07:16:15;52.10;;;26.10;;
65658;SDS011;60181;53.258;6.932;2023-05-07T07:20:19;60.50;;;28.10;;
65658;SDS011;60181;53.258;6.932;2023-05-07T07:24:23;60.50;;;28.10;;
65658;SDS011;60181;53.258;6.932;2023-05-07T07:28:27;55.70;;;26.70;;
65658;SDS011;60181;53.258;6.932;2023-05-07T07:32:31;55.70;;;26.70;;
65658;SDS011;60181;53.258;6.932;2023-05-07T07:36:35;55.70;;;26.70;;
65658;SDS011;60181;53.258;6.932;2023-05-07T07:40:39;54.50;;;26.70;;
65658;SDS011;60181;53.258;6.932;2023-05-07T07:44:43;54.50;;;26.70;;
65658;SDS011;60181;53.258;6.932;2023-05-07T07:48:47;51.00;;;25.80;;
65658;SDS011;60181;53.258;6.932;2023-05-07T07:52:51;51.00;;;25.80;;
65658;SDS011;60181;53.258;6.932;2023-05-07T07:56:55;51.00;;;25.80;;
65658;SDS011;60181;53.258;6.932;2023-05-07T08:00:59;57.30;;;27.60;;
65658;SDS011;60181;53.258;6.932;2023-05-07T08:05:03;57.30;;;27.60;;
65658;SDS011;60181;53.258;6.932;2023-05-07T08:09:07;57.10;;;28.30;;
65658;SDS011;60181;53.258;6.932;2023-05-07T08:13:11;57.10;;;28.30;;
65658;SDS011;60181;53.258;6.932;2023-05-07T08:17:15;59.60;;;29.10;;
65658;SDS011;60181;53.258;6.932;2023-05-07T08:21:19;59.60;;;29.10;;
65658;SDS011;60181;53.258;6.932;2023-05-07T08:25:23;59.60;;;29.10;;
65658;SDS011;60181;53.258;6.932;2023-05-07T08:29:27;54.10;;;27.40;;
65658;SDS011;60181;53.258;6.932;2023-05-07T08:33:31;54.10;;;27.40;;
65658;SDS011;60181;53.258;6.932;2023-05-07T08:37:35;62.60;;;30.70;;
65658;SDS011;60181;53.258;6.932;2023-05-07T08:41:39;62.60;;;30.70;;
65658;SDS011;60181;53.258;6.932;2023-05-07T08:45:43;62.60;;;30.70;;
65658;SDS011;60181;53.258;6.932;2023-05-07T08:49:47;101.70;;;35.00;;
65658;SDS011;60181;53.258;6.932;2023-05-07T08:53:51;101.70;;;35.00;;
65658;SDS011;60181;53.258;6.932;2023-05-07T08:57:55;83.90;;;31.50;;
65658;SDS011;60181;53.258;6.932;2023-05-07T09:01:59;83.90;;;31.50;;
65658;SDS011;60181;53.258;6.932;2023-05-07T09:06:03;83.90;;;31.50;;
65658;SDS011;60181;53.258;6.932;2023-05-07T09:10:07;80.20;;;30.50;;
65658;SDS011;60181;53.258;6.932;2023-05-07T09:14:11;80.20;;;30.50;;
65658;SDS011;60181;53.258;6.932;2023-05-07T09:18:15;72.50;;;29.70;;
65658;SDS011;60181;53.258;6.932;2023-05-07T09:22:19;72.50;;;29.70;;
65658;SDS011;60181;53.258;6.932;2023-05-07T09:26:23;72.50;;;29.70;;
65658;SDS011;60181;53.258;6.932;2023-05-07T09:30:27;63.10;;;29.40;;
65658;SDS011;60181;53.258;6.932;2023-05-07T09:34:31;63.10;;;29.40;;
65658;SDS011;60181;53.258;6.932;2023-05-07T09:38:35;64.00;;;28.60;;
65658;SDS011;60181;53.258;6.932;2023-05-07T09:42:38;64.00;;;28.60;;
65658;SDS011;60181;53.258;6.932;2023-05-07T09:46:43;64.00;;;28.60;;
65658;SDS011;60181;53.258;6.932;2023-05-07T09:50:48;61.30;;;27.50;;
65658;SDS011;60181;53.258;6.932;2023-05-07T09:54:50;61.30;;;27.50;;
65658;SDS011;60181;53.258;6.932;2023-05-07T09:58:55;65.40;;;27.80;;
65658;SDS011;60181;53.258;6.932;2023-05-07T10:02:58;65.40;;;27.80;;
65658;SDS011;60181;53.258;6.932;2023-05-07T10:07:03;57.00;;;26.60;;
65658;SDS011;60181;53.258;6.932;2023-05-07T10:11:06;57.00;;;26.60;;
65658;SDS011;60181;53.258;6.932;2023-05-07T10:15:11;57.00;;;26.60;;
65658;SDS011;60181;53.258;6.932;2023-05-07T10:19:14;53.70;;;24.70;;
65658;SDS011;60181;53.258;6.932;2023-05-07T10:23:19;53.70;;;24.70;;
65658;SDS011;60181;53.258;6.932;2023-05-07T10:27:22;50.70;;;25.40;;
65658;SDS011;60181;53.258;6.932;2023-05-07T10:31:45;50.70;;;25.40;;
65658;SDS011;60181;53.258;6.932;2023-05-07T10:35:31;50.70;;;25.40;;
65658;SDS011;60181;53.258;6.932;2023-05-07T10:39:34;49.10;;;24.50;;
65658;SDS011;60181;53.258;6.932;2023-05-07T10:43:39;49.10;;;24.50;;
65658;SDS011;60181;53.258;6.932;2023-05-07T10:51:46;47.90;;;24.40;;
65658;SDS011;60181;53.258;6.932;2023-05-07T10:55:51;47.90;;;24.40;;
65658;SDS011;60181;53.258;6.932;2023-05-07T10:59:54;48.30;;;25.00;;
65658;SDS011;60181;53.258;6.932;2023-05-07T11:04:14;48.30;;;25.00;;
65658;SDS011;60181;53.258;6.932;2023-05-07T11:08:03;49.20;;;24.00;;
65658;SDS011;60181;53.258;6.932;2023-05-07T11:12:06;49.20;;;24.00;;
65658;SDS011;60181;53.258;6.932;2023-05-07T11:16:23;49.20;;;24.00;;
65658;SDS011;60181;53.258;6.932;2023-05-07T11:20:14;49.20;;;24.00;;
65658;SDS011;60181;53.258;6.932;2023-05-07T11:24:18;49.20;;;24.00;;
65658;SDS011;60181;53.258;6.932;2023-05-07T11:28:22;40.50;;;22.30;;
65658;SDS011;60181;53.258;6.932;2023-05-07T11:32:30;40.50;;;22.30;;
65658;SDS011;60181;53.258;6.932;2023-05-07T11:36:31;40.50;;;22.30;;
65658;SDS011;60181;53.258;6.932;2023-05-07T11:40:34;43.00;;;22.10;;
65658;SDS011;60181;53.258;6.932;2023-05-07T11:44:44;43.00;;;22.10;;
65658;SDS011;60181;53.258;6.932;2023-05-07T11:48:42;41.40;;;22.30;;
65658;SDS011;60181;53.258;6.932;2023-05-07T11:52:52;41.40;;;22.30;;
65658;SDS011;60181;53.258;6.932;2023-05-07T11:56:50;41.40;;;22.30;;
65658;SDS011;60181;53.258;6.932;2023-05-07T12:00:54;37.10;;;21.60;;
65658;SDS011;60181;53.258;6.932;2023-05-07T12:05:00;37.10;;;21.60;;
65658;SDS011;60181;53.258;6.932;2023-05-07T12:09:02;37.90;;;21.40;;
65658;SDS011;60181;53.258;6.932;2023-05-07T12:13:13;37.90;;;21.40;;
65658;SDS011;60181;53.258;6.932;2023-05-07T12:17:11;36.60;;;20.90;;
65658;SDS011;60181;53.258;6.932;2023-05-07T12:21:14;36.60;;;20.90;;
65658;SDS011;60181;53.258;6.932;2023-05-07T12:25:19;36.60;;;20.90;;
65658;SDS011;60181;53.258;6.932;2023-05-07T12:29:22;38.60;;;20.50;;
65658;SDS011;60181;53.258;6.932;2023-05-07T12:33:26;38.60;;;20.50;;
65658;SDS011;60181;53.258;6.932;2023-05-07T12:37:30;36.80;;;20.20;;
65658;SDS011;60181;53.258;6.932;2023-05-07T12:41:53;36.80;;;20.20;;
65658;SDS011;60181;53.258;6.932;2023-05-07T12:45:38;36.80;;;20.20;;
65658;SDS011;60181;53.258;6.932;2023-05-07T12:49:42;33.70;;;19.20;;
65658;SDS011;60181;53.258;6.932;2023-05-07T12:53:46;33.70;;;19.20;;
65658;SDS011;60181;53.258;6.932;2023-05-07T12:57:50;31.90;;;19.00;;
65658;SDS011;60181;53.258;6.932;2023-05-07T13:01:54;31.90;;;19.00;;
65658;SDS011;60181;53.258;6.932;2023-05-07T13:05:59;31.90;;;19.00;;
65658;SDS011;60181;53.258;6.932;2023-05-07T13:10:03;32.40;;;18.60;;
65658;SDS011;60181;53.258;6.932;2023-05-07T13:14:06;32.40;;;18.60;;
65658;SDS011;60181;53.258;6.932;2023-05-07T13:18:10;27.70;;;17.70;;
65658;SDS011;60181;53.258;6.932;2023-05-07T13:22:14;27.70;;;17.70;;
65658;SDS011;60181;53.258;6.932;2023-05-07T13:26:18;27.70;;;17.70;;
65658;SDS011;60181;53.258;6.932;2023-05-07T13:30:22;29.90;;;17.60;;
65658;SDS011;60181;53.258;6.932;2023-05-07T13:34:27;29.90;;;17.60;;
65658;SDS011;60181;53.258;6.932;2023-05-07T13:38:30;28.40;;;17.00;;
65658;SDS011;60181;53.258;6.932;2023-05-07T13:42:34;28.40;;;17.00;;
65658;SDS011;60181;53.258;6.932;2023-05-07T13:46:38;28.40;;;17.00;;
65658;SDS011;60181;53.258;6.932;2023-05-07T13:50:42;27.00;;;16.90;;
65658;SDS011;60181;53.258;6.932;2023-05-07T13:54:46;27.00;;;16.90;;
65658;SDS011;60181;53.258;6.932;2023-05-07T13:58:50;27.30;;;17.30;;
65658;SDS011;60181;53.258;6.932;2023-05-07T14:02:55;27.30;;;17.30;;
65658;SDS011;60181;53.258;6.932;2023-05-07T14:06:58;27.30;;;17.30;;
65658;SDS011;60181;53.258;6.932;2023-05-07T14:11:02;26.80;;;17.00;;
65658;SDS011;60181;53.258;6.932;2023-05-07T14:15:06;26.80;;;17.00;;
65658;SDS011;60181;53.258;6.932;2023-05-07T14:19:11;24.50;;;16.10;;
65658;SDS011;60181;53.258;6.932;2023-05-07T14:23:14;24.50;;;16.10;;
65658;SDS011;60181;53.258;6.932;2023-05-07T14:27:18;23.60;;;15.20;;
65658;SDS011;60181;53.258;6.932;2023-05-07T14:31:22;23.60;;;15.20;;
65658;SDS011;60181;53.258;6.932;2023-05-07T14:35:26;23.60;;;15.20;;
65658;SDS011;60181;53.258;6.932;2023-05-07T14:39:30;23.80;;;15.30;;
65658;SDS011;60181;53.258;6.932;2023-05-07T14:43:34;23.80;;;15.30;;
65658;SDS011;60181;53.258;6.932;2023-05-07T14:47:38;23.50;;;14.80;;
65658;SDS011;60181;53.258;6.932;2023-05-07T14:51:45;23.50;;;14.80;;
65658;SDS011;60181;53.258;6.932;2023-05-07T14:55:47;23.50;;;14.80;;
65658;SDS011;60181;53.258;6.932;2023-05-07T14:59:50;22.30;;;14.80;;
65658;SDS011;60181;53.258;6.932;2023-05-07T15:03:54;22.30;;;14.80;;
65658;SDS011;60181;53.258;6.932;2023-05-07T15:07:58;22.40;;;14.20;;
65658;SDS011;60181;53.258;6.932;2023-05-07T15:12:02;22.40;;;14.20;;
65658;SDS011;60181;53.258;6.932;2023-05-07T15:16:06;22.40;;;14.20;;
65658;SDS011;60181;53.258;6.932;2023-05-07T15:20:10;20.90;;;13.60;;
65658;SDS011;60181;53.258;6.932;2023-05-07T15:24:14;20.90;;;13.60;;
65658;SDS011;60181;53.258;6.932;2023-05-07T15:28:18;20.20;;;13.60;;
65658;SDS011;60181;53.258;6.932;2023-05-07T15:32:22;20.20;;;13.60;;
65658;SDS011;60181;53.258;6.932;2023-05-07T15:36:26;20.20;;;13.60;;
65658;SDS011;60181;53.258;6.932;2023-05-07T15:40:30;20.70;;;13.40;;
65658;SDS011;60181;53.258;6.932;2023-05-07T15:44:34;20.70;;;13.40;;
65658;SDS011;60181;53.258;6.932;2023-05-07T15:48:38;19.00;;;13.20;;
65658;SDS011;60181;53.258;6.932;2023-05-07T15:52:42;19.00;;;13.20;;
65658;SDS011;60181;53.258;6.932;2023-05-07T15:56:46;19.00;;;13.20;;
65658;SDS011;60181;53.258;6.932;2023-05-07T16:00:50;20.70;;;14.10;;
65658;SDS011;60181;53.258;6.932;2023-05-07T16:04:54;20.70;;;14.10;;
65658;SDS011;60181;53.258;6.932;2023-05-07T16:08:58;20.20;;;13.60;;
65658;SDS011;60181;53.258;6.932;2023-05-07T16:13:02;20.20;;;13.60;;
65658;SDS011;60181;53.258;6.932;2023-05-07T16:17:06;22.80;;;13.10;;
65658;SDS011;60181;53.258;6.932;2023-05-07T16:21:10;22.80;;;13.10;;
65658;SDS011;60181;53.258;6.932;2023-05-07T16:25:14;22.80;;;13.10;;
65658;SDS011;60181;53.258;6.932;2023-05-07T16:29:18;20.60;;;13.30;;
65658;SDS011;60181;53.258;6.932;2023-05-07T16:33:22;20.60;;;13.30;;
65658;SDS011;60181;53.258;6.932;2023-05-07T16:37:26;20.90;;;13.00;;
65658;SDS011;60181;53.258;6.932;2023-05-07T16:41:30;20.90;;;13.00;;
65658;SDS011;60181;53.258;6.932;2023-05-07T16:45:34;20.90;;;13.00;;
65658;SDS011;60181;53.258;6.932;2023-05-07T16:49:38;22.00;;;12.70;;
65658;SDS011;60181;53.258;6.932;2023-05-07T16:53:42;22.00;;;12.70;;
65658;SDS011;60181;53.258;6.932;2023-05-07T16:57:46;20.00;;;12.50;;
65658;SDS011;60181;53.258;6.932;2023-05-07T17:01:50;20.00;;;12.50;;
65658;SDS011;60181;53.258;6.932;2023-05-07T17:05:54;20.00;;;12.50;;
65658;SDS011;60181;53.258;6.932;2023-05-07T17:09:58;18.00;;;12.00;;
65658;SDS011;60181;53.258;6.932;2023-05-07T17:14:02;18.00;;;12.00;;
65658;SDS011;60181;53.258;6.932;2023-05-07T17:18:06;19.30;;;11.90;;
65658;SDS011;60181;53.258;6.932;2023-05-07T17:22:10;19.30;;;11.90;;
65658;SDS011;60181;53.258;6.932;2023-05-07T17:26:14;19.30;;;11.90;;
65658;SDS011;60181;53.258;6.932;2023-05-07T17:30:18;20.10;;;11.60;;
65658;SDS011;60181;53.258;6.932;2023-05-07T17:34:22;20.10;;;11.60;;
65658;SDS011;60181;53.258;6.932;2023-05-07T17:38:26;17.50;;;11.20;;
65658;SDS011;60181;53.258;6.932;2023-05-07T17:42:30;17.50;;;11.20;;
65658;SDS011;60181;53.258;6.932;2023-05-07T17:46:34;17.50;;;11.20;;
65658;SDS011;60181;53.258;6.932;2023-05-07T17:50:38;18.60;;;11.00;;
65658;SDS011;60181;53.258;6.932;2023-05-07T17:54:42;18.60;;;11.00;;
65658;SDS011;60181;53.258;6.932;2023-05-07T17:58:46;19.70;;;10.60;;
65658;SDS011;60181;53.258;6.932;2023-05-07T18:02:50;19.70;;;10.60;;
65658;SDS011;60181;53.258;6.932;2023-05-07T18:06:54;19.70;;;10.60;;
65658;SDS011;60181;53.258;6.932;2023-05-07T18:10:58;16.70;;;10.20;;
65658;SDS011;60181;53.258;6.932;2023-05-07T18:15:02;16.70;;;10.20;;
65658;SDS011;60181;53.258;6.932;2023-05-07T18:19:06;15.40;;;9.90;;
65658;SDS011;60181;53.258;6.932;2023-05-07T18:23:10;15.40;;;9.90;;
65658;SDS011;60181;53.258;6.932;2023-05-07T18:27:14;18.80;;;9.60;;
65658;SDS011;60181;53.258;6.932;2023-05-07T18:31:18;18.80;;;9.60;;
65658;SDS011;60181;53.258;6.932;2023-05-07T18:35:22;18.80;;;9.60;;
65658;SDS011;60181;53.258;6.932;2023-05-07T18:39:26;15.30;;;9.10;;
65658;SDS011;60181;53.258;6.932;2023-05-07T18:43:30;15.30;;;9.10;;
65658;SDS011;60181;53.258;6.932;2023-05-07T18:47:34;14.50;;;8.40;;
65658;SDS011;60181;53.258;6.932;2023-05-07T18:51:38;14.50;;;8.40;;
65658;SDS011;60181;53.258;6.932;2023-05-07T18:55:42;14.50;;;8.40;;
65658;SDS011;60181;53.258;6.932;2023-05-07T18:59:46;16.00;;;9.00;;
65658;SDS011;60181;53.258;6.932;2023-05-07T19:03:50;16.00;;;9.00;;
65658;SDS011;60181;53.258;6.932;2023-05-07T19:07:54;12.80;;;8.60;;
65658;SDS011;60181;53.258;6.932;2023-05-07T19:11:58;12.80;;;8.60;;
65658;SDS011;60181;53.258;6.932;2023-05-07T19:16:02;12.80;;;8.60;;
65658;SDS011;60181;53.258;6.932;2023-05-07T19:20:06;13.50;;;8.10;;
65658;SDS011;60181;53.258;6.932;2023-05-07T19:24:10;13.50;;;8.10;;
65658;SDS011;60181;53.258;6.932;2023-05-07T19:28:14;14.40;;;8.70;;
65658;SDS011;60181;53.258;6.932;2023-05-07T19:32:18;14.40;;;8.70;;
65658;SDS011;60181;53.258;6.932;2023-05-07T19:36:22;14.40;;;8.70;;
65658;SDS011;60181;53.258;6.932;2023-05-07T19:40:26;12.20;;;8.20;;
65658;SDS011;60181;53.258;6.932;2023-05-07T19:44:30;12.20;;;8.20;;
65658;SDS011;60181;53.258;6.932;2023-05-07T19:48:34;13.90;;;8.20;;
65658;SDS011;60181;53.258;6.932;2023-05-07T19:52:38;13.90;;;8.20;;
65658;SDS011;60181;53.258;6.932;2023-05-07T19:56:42;13.90;;;8.20;;
65658;SDS011;60181;53.258;6.932;2023-05-07T20:00:49;13.60;;;8.40;;
65658;SDS011;60181;53.258;6.932;2023-05-07T20:04:50;13.60;;;8.40;;
65658;SDS011;60181;53.258;6.932;2023-05-07T20:08:54;13.50;;;8.00;;
65658;SDS011;60181;53.258;6.932;2023-05-07T20:12:58;13.50;;;8.00;;
65658;SDS011;60181;53.258;6.932;2023-05-07T20:17:02;13.50;;;8.00;;
65658;SDS011;60181;53.258;6.932;2023-05-07T20:21:06;12.30;;;7.90;;
65658;SDS011;60181;53.258;6.932;2023-05-07T20:25:10;12.30;;;7.90;;
65658;SDS011;60181;53.258;6.932;2023-05-07T20:29:14;11.90;;;7.50;;
65658;SDS011;60181;53.258;6.932;2023-05-07T20:33:18;11.90;;;7.50;;
65658;SDS011;60181;53.258;6.932;2023-05-07T20:37:22;12.40;;;7.70;;
65658;SDS011;60181;53.258;6.932;2023-05-07T20:41:26;12.40;;;7.70;;
65658;SDS011;60181;53.258;6.932;2023-05-07T20:45:30;12.40;;;7.70;;
65658;SDS011;60181;53.258;6.932;2023-05-07T20:49:34;10.60;;;7.40;;
65658;SDS011;60181;53.258;6.932;2023-05-07T20:53:38;10.60;;;7.40;;
65658;SDS011;60181;53.258;6.932;2023-05-07T20:57:42;11.60;;;7.10;;
65658;SDS011;60181;53.258;6.932;2023-05-07T21:01:46;11.60;;;7.10;;
65658;SDS011;60181;53.258;6.932;2023-05-07T21:05:50;11.60;;;7.10;;
65658;SDS011;60181;53.258;6.932;2023-05-07T21:09:54;12.20;;;7.20;;
65658;SDS011;60181;53.258;6.932;2023-05-07T21:13:58;12.20;;;7.20;;
65658;SDS011;60181;53.258;6.932;2023-05-07T21:18:02;10.10;;;6.70;;
65658;SDS011;60181;53.258;6.932;2023-05-07T21:22:06;10.10;;;6.70;;
65658;SDS011;60181;53.258;6.932;2023-05-07T21:26:16;10.10;;;6.70;;
65658;SDS011;60181;53.258;6.932;2023-05-07T21:30:14;16.70;;;7.10;;
65658;SDS011;60181;53.258;6.932;2023-05-07T21:34:18;16.70;;;7.10;;
65658;SDS011;60181;53.258;6.932;2023-05-07T21:38:22;14.30;;;7.90;;
65658;SDS011;60181;53.258;6.932;2023-05-07T21:42:26;14.30;;;7.90;;
65658;SDS011;60181;53.258;6.932;2023-05-07T21:46:29;14.30;;;7.90;;
65658;SDS011;60181;53.258;6.932;2023-05-07T21:50:34;13.50;;;8.10;;
65658;SDS011;60181;53.258;6.932;2023-05-07T21:54:38;13.50;;;8.10;;
65658;SDS011;60181;53.258;6.932;2023-05-07T21:58:41;15.90;;;8.40;;
65658;SDS011;60181;53.258;6.932;2023-05-07T22:02:45;15.90;;;8.40;;
65658;SDS011;60181;53.258;6.932;2023-05-07T22:06:49;15.90;;;8.40;;
65658;SDS011;60181;53.258;6.932;2023-05-07T22:10:54;12.30;;;8.20;;
65658;SDS011;60181;53.258;6.932;2023-05-07T22:14:58;12.30;;;8.20;;
65658;SDS011;60181;53.258;6.932;2023-05-07T22:19:01;14.10;;;8.70;;
65658;SDS011;60181;53.258;6.932;2023-05-07T22:23:05;14.10;;;8.70;;
65658;SDS011;60181;53.258;6.932;2023-05-07T22:27:09;14.70;;;8.70;;
65658;SDS011;60181;53.258;6.932;2023-05-07T22:31:13;14.70;;;8.70;;
65658;SDS011;60181;53.258;6.932;2023-05-07T22:35:17;14.70;;;8.70;;
65658;SDS011;60181;53.258;6.932;2023-05-07T22:39:21;14.60;;;8.90;;
65658;SDS011;60181;53.258;6.932;2023-05-07T22:43:25;14.60;;;8.90;;
65658;SDS011;60181;53.258;6.932;2023-05-07T22:47:29;15.30;;;8.70;;
65658;SDS011;60181;53.258;6.932;2023-05-07T22:51:33;15.30;;;8.70;;
65658;SDS011;60181;53.258;6.932;2023-05-07T22:55:37;15.30;;;8.70;;
65658;SDS011;60181;53.258;6.932;2023-05-07T22:59:41;12.90;;;8.40;;
65658;SDS011;60181;53.258;6.932;2023-05-07T23:03:45;12.90;;;8.40;;
65658;SDS011;60181;53.258;6.932;2023-05-07T23:07:49;15.30;;;8.90;;
65658;SDS011;60181;53.258;6.932;2023-05-07T23:11:53;15.30;;;8.90;;
65658;SDS011;60181;53.258;6.932;2023-05-07T23:15:57;15.30;;;8.90;;
65658;SDS011;60181;53.258;6.932;2023-05-07T23:20:01;16.50;;;9.00;;
65658;SDS011;60181;53.258;6.932;2023-05-07T23:24:06;16.50;;;9.00;;
65658;SDS011;60181;53.258;6.932;2023-05-07T23:28:09;18.00;;;9.30;;
65658;SDS011;60181;53.258;6.932;2023-05-07T23:32:13;18.00;;;9.30;;
65658;SDS011;60181;53.258;6.932;2023-05-07T23:36:17;18.00;;;9.30;;
65658;SDS011;60181;53.258;6.932;2023-05-07T23:40:21;15.40;;;9.20;;
65658;SDS011;60181;53.258;6.932;2023-05-07T23:44:25;15.40;;;9.20;;
65658;SDS011;60181;53.258;6.932;2023-05-07T23:48:29;15.20;;;9.80;;
65658;SDS011;60181;53.258;6.932;2023-05-07T23:52:33;15.20;;;9.80;;